sensor_id;sensor_type;location;lat;lon;timestamp;pressure;altitude;pressure_sealevel;temperature;humidity
57050;BME280;42935;50.966;16.992;2023-01-25T00:01:15;103657.03;;;1.68;100.00
57050;BME280;42935;50.966;16.992;2023-01-25T00:04:27;103653.95;;;1.50;100.00
57050;BME280;42935;50.966;16.992;2023-01-25T00:07:41;103652.36;;;1.60;100.00
57050;BME280;42935;50.966;16.992;2023-01-25T00:10:53;103642.05;;;1.55;100.00
57050;BME280;42935;50.966;16.992;2023-01-25T00:14:10;103645.98;;;1.57;100.00
57050;BME280;42935;50.966;16.992;2023-01-25T00:17:21;103640.10;;;1.56;100.00
57050;BME280;42935;50.966;16.992;2023-01-25T00:20:35;103639.27;;;1.29;100.00
57050;BME280;42935;50.966;16.992;2023-01-25T00:23:42;103649.18;;;1.39;100.00
57050;BME280;42935;50.966;16.992;2023-01-25T00:26:52;103640.84;;;1.36;100.00
57050;BME280;42935;50.966;16.992;2023-01-25T00:30:03;103634.41;;;1.42;100.00
57050;BME280;42935;50.966;16.992;2023-01-25T00:36:40;103641.34;;;1.53;100.00
57050;BME280;42935;50.966;16.992;2023-01-25T00:39:47;103634.02;;;1.51;100.00
57050;BME280;42935;50.966;16.992;2023-01-25T00:43:02;103633.86;;;1.41;100.00
57050;BME280;42935;50.966;16.992;2023-01-25T00:46:08;103630.02;;;1.39;100.00
57050;BME280;42935;50.966;16.992;2023-01-25T00:49:20;103635.23;;;1.55;100.00
57050;BME280;42935;50.966;16.992;2023-01-25T00:52:32;103631.97;;;1.54;100.00
57050;BME280;42935;50.966;16.992;2023-01-25T00:55:39;103627.59;;;1.36;100.00
57050;BME280;42935;50.966;16.992;2023-01-25T00:58:50;103599.35;;;1.13;100.00
57050;BME280;42935;50.966;16.992;2023-01-25T01:02:02;103616.58;;;1.16;100.00
57050;BME280;42935;50.966;16.992;2023-01-25T01:05:13;103611.29;;;1.41;100.00
57050;BME280;42935;50.966;16.992;2023-01-25T01:08:26;103608.16;;;0.97;100.00
57050;BME280;42935;50.966;16.992;2023-01-25T01:11:29;103611.13;;;0.91;100.00
57050;BME280;42935;50.966;16.992;2023-01-25T01:14:38;103618.01;;;1.20;100.00
57050;BME280;42935;50.966;16.992;2023-01-25T01:17:52;103602.27;;;1.13;100.00
57050;BME280;42935;50.966;16.992;2023-01-25T01:20:59;103596.01;;;1.36;100.00
57050;BME280;42935;50.966;16.992;2023-01-25T01:24:10;103574.52;;;1.36;100.00
57050;BME280;42935;50.966;16.992;2023-01-25T01:27:18;103576.97;;;1.31;100.00
57050;BME280;42935;50.966;16.992;2023-01-25T01:30:26;103577.67;;;1.53;100.00
57050;BME280;42935;50.966;16.992;2023-01-25T01:33:32;103580.17;;;1.42;100.00
57050;BME280;42935;50.966;16.992;2023-01-25T01:36:39;103564.86;;;1.13;100.00
57050;BME280;42935;50.966;16.992;2023-01-25T01:39:46;103556.99;;;1.09;100.00
57050;BME280;42935;50.966;16.992;2023-01-25T01:43:00;103558.11;;;1.11;100.00
57050;BME280;42935;50.966;16.992;2023-01-25T01:46:21;103566.98;;;1.38;100.00
57050;BME280;42935;50.966;16.992;2023-01-25T01:49:34;103562.09;;;1.54;100.00
57050;BME280;42935;50.966;16.992;2023-01-25T01:52:42;103562.52;;;1.56;100.00
57050;BME280;42935;50.966;16.992;2023-01-25T01:55:59;103548.42;;;1.57;100.00
57050;BME280;42935;50.966;16.992;2023-01-25T01:59:07;103553.13;;;1.56;100.00
57050;BME280;42935;50.966;16.992;2023-01-25T02:02:16;103554.97;;;1.45;100.00
57050;BME280;42935;50.966;16.992;2023-01-25T02:05:39;103556.01;;;1.27;100.00
57050;BME280;42935;50.966;16.992;2023-01-25T02:08:57;103551.05;;;1.41;100.00
57050;BME280;42935;50.966;16.992;2023-01-25T02:12:04;103529.42;;;1.48;100.00
57050;BME280;42935;50.966;16.992;2023-01-25T02:15:11;103542.88;;;1.55;100.00
57050;BME280;42935;50.966;16.992;2023-01-25T02:18:25;103515.99;;;1.32;100.00
57050;BME280;42935;50.966;16.992;2023-01-25T02:21:39;103542.65;;;1.43;100.00
57050;BME280;42935;50.966;16.992;2023-01-25T02:24:49;103543.71;;;1.41;100.00
57050;BME280;42935;50.966;16.992;2023-01-25T02:31:26;103541.36;;;1.37;100.00
57050;BME280;42935;50.966;16.992;2023-01-25T02:34:33;103543.79;;;1.51;100.00
57050;BME280;42935;50.966;16.992;2023-01-25T02:37:40;103542.77;;;1.57;100.00
57050;BME280;42935;50.966;16.992;2023-01-25T02:44:10;103539.47;;;1.43;100.00
57050;BME280;42935;50.966;16.992;2023-01-25T02:47:22;103534.91;;;0.91;100.00
57050;BME280;42935;50.966;16.992;2023-01-25T02:50:29;103537.43;;;0.87;100.00
57050;BME280;42935;50.966;16.992;2023-01-25T02:53:39;103527.33;;;0.91;100.00
57050;BME280;42935;50.966;16.992;2023-01-25T02:56:46;103535.62;;;1.06;100.00
57050;BME280;42935;50.966;16.992;2023-01-25T02:59:53;103536.15;;;0.98;100.00
57050;BME280;42935;50.966;16.992;2023-01-25T03:03:00;103535.37;;;0.74;100.00
57050;BME280;42935;50.966;16.992;2023-01-25T03:06:15;103535.27;;;0.81;100.00
57050;BME280;42935;50.966;16.992;2023-01-25T03:09:26;103530.53;;;1.05;100.00
57050;BME280;42935;50.966;16.992;2023-01-25T03:12:32;103528.75;;;1.02;100.00
57050;BME280;42935;50.966;16.992;2023-01-25T03:15:39;103527.41;;;1.10;100.00
57050;BME280;42935;50.966;16.992;2023-01-25T03:18:46;103517.37;;;1.01;100.00
57050;BME280;42935;50.966;16.992;2023-01-25T03:21:53;103522.00;;;0.87;100.00
57050;BME280;42935;50.966;16.992;2023-01-25T03:25:00;103511.12;;;0.79;100.00
57050;BME280;42935;50.966;16.992;2023-01-25T03:28:06;103505.75;;;0.86;100.00
57050;BME280;42935;50.966;16.992;2023-01-25T03:31:17;103516.11;;;1.00;100.00
57050;BME280;42935;50.966;16.992;2023-01-25T03:34:28;103515.53;;;0.94;100.00
57050;BME280;42935;50.966;16.992;2023-01-25T03:37:33;103508.53;;;1.16;100.00
57050;BME280;42935;50.966;16.992;2023-01-25T03:40:42;103515.36;;;1.26;100.00
57050;BME280;42935;50.966;16.992;2023-01-25T03:43:53;103515.26;;;1.08;100.00
57050;BME280;42935;50.966;16.992;2023-01-25T03:47:00;103508.18;;;0.81;100.00
57050;BME280;42935;50.966;16.992;2023-01-25T03:50:10;103499.89;;;1.10;100.00
57050;BME280;42935;50.966;16.992;2023-01-25T03:53:21;103509.53;;;1.29;100.00
57050;BME280;42935;50.966;16.992;2023-01-25T03:56:35;103510.35;;;0.89;100.00
57050;BME280;42935;50.966;16.992;2023-01-25T03:59:42;103498.52;;;0.65;100.00
57050;BME280;42935;50.966;16.992;2023-01-25T04:02:55;103504.48;;;0.90;100.00
57050;BME280;42935;50.966;16.992;2023-01-25T04:06:07;103496.41;;;0.77;100.00
57050;BME280;42935;50.966;16.992;2023-01-25T04:09:13;103501.86;;;0.81;100.00
57050;BME280;42935;50.966;16.992;2023-01-25T04:12:28;103495.48;;;0.61;100.00
57050;BME280;42935;50.966;16.992;2023-01-25T04:15:35;103472.64;;;0.44;100.00
57050;BME280;42935;50.966;16.992;2023-01-25T04:18:42;103497.98;;;0.78;100.00
57050;BME280;42935;50.966;16.992;2023-01-25T04:21:55;103486.94;;;0.69;100.00
57050;BME280;42935;50.966;16.992;2023-01-25T04:25:07;103492.13;;;0.77;100.00
57050;BME280;42935;50.966;16.992;2023-01-25T04:28:18;103478.34;;;0.54;100.00
57050;BME280;42935;50.966;16.992;2023-01-25T04:31:33;103472.02;;;0.67;100.00
57050;BME280;42935;50.966;16.992;2023-01-25T04:34:40;103475.43;;;0.52;100.00
57050;BME280;42935;50.966;16.992;2023-01-25T04:37:55;103466.20;;;0.67;100.00
57050;BME280;42935;50.966;16.992;2023-01-25T04:41:03;103458.38;;;0.50;100.00
57050;BME280;42935;50.966;16.992;2023-01-25T04:44:18;103461.39;;;0.61;100.00
57050;BME280;42935;50.966;16.992;2023-01-25T04:47:32;103459.91;;;0.49;100.00
57050;BME280;42935;50.966;16.992;2023-01-25T04:50:38;103451.39;;;0.41;100.00
57050;BME280;42935;50.966;16.992;2023-01-25T04:53:53;103460.39;;;0.47;100.00
57050;BME280;42935;50.966;16.992;2023-01-25T04:57:00;103461.13;;;0.58;100.00
57050;BME280;42935;50.966;16.992;2023-01-25T05:00:10;103461.54;;;0.82;100.00
57050;BME280;42935;50.966;16.992;2023-01-25T05:03:22;103461.41;;;1.01;100.00
57050;BME280;42935;50.966;16.992;2023-01-25T05:06:32;103455.43;;;0.69;100.00
57050;BME280;42935;50.966;16.992;2023-01-25T05:09:39;103460.72;;;0.67;100.00
57050;BME280;42935;50.966;16.992;2023-01-25T05:12:49;103448.45;;;0.66;100.00
57050;BME280;42935;50.966;16.992;2023-01-25T05:15:56;103455.42;;;0.61;100.00
57050;BME280;42935;50.966;16.992;2023-01-25T05:19:03;103448.56;;;0.62;100.00
57050;BME280;42935;50.966;16.992;2023-01-25T05:22:17;103446.05;;;0.92;100.00
57050;BME280;42935;50.966;16.992;2023-01-25T05:25:24;103436.95;;;1.09;100.00
57050;BME280;42935;50.966;16.992;2023-01-25T05:28:40;103445.72;;;1.27;100.00
57050;BME280;42935;50.966;16.992;2023-01-25T05:31:47;103442.20;;;1.08;100.00
57050;BME280;42935;50.966;16.992;2023-01-25T05:34:55;103446.19;;;0.95;100.00
57050;BME280;42935;50.966;16.992;2023-01-25T05:38:06;103432.03;;;0.86;100.00
57050;BME280;42935;50.966;16.992;2023-01-25T05:41:13;103427.95;;;0.87;100.00
57050;BME280;42935;50.966;16.992;2023-01-25T05:44:19;103424.27;;;0.85;100.00
57050;BME280;42935;50.966;16.992;2023-01-25T05:47:26;103428.84;;;0.97;100.00
57050;BME280;42935;50.966;16.992;2023-01-25T05:50:37;103426.58;;;1.06;100.00
57050;BME280;42935;50.966;16.992;2023-01-25T05:53:54;103416.09;;;1.21;100.00
57050;BME280;42935;50.966;16.992;2023-01-25T05:57:32;103421.64;;;1.25;100.00
57050;BME280;42935;50.966;16.992;2023-01-25T06:00:38;103406.71;;;1.08;100.00
57050;BME280;42935;50.966;16.992;2023-01-25T06:03:49;103407.38;;;1.01;100.00
57050;BME280;42935;50.966;16.992;2023-01-25T06:07:01;103408.27;;;0.97;100.00
57050;BME280;42935;50.966;16.992;2023-01-25T06:10:11;103414.38;;;0.95;100.00
57050;BME280;42935;50.966;16.992;2023-01-25T06:13:18;103417.99;;;0.72;100.00
57050;BME280;42935;50.966;16.992;2023-01-25T06:16:24;103421.33;;;0.76;100.00
57050;BME280;42935;50.966;16.992;2023-01-25T06:19:30;103411.09;;;0.73;100.00
57050;BME280;42935;50.966;16.992;2023-01-25T06:22:36;103416.17;;;0.91;100.00
57050;BME280;42935;50.966;16.992;2023-01-25T06:25:44;103409.03;;;0.92;100.00
57050;BME280;42935;50.966;16.992;2023-01-25T06:28:59;103398.80;;;0.93;100.00
57050;BME280;42935;50.966;16.992;2023-01-25T06:32:11;103410.28;;;0.91;100.00
57050;BME280;42935;50.966;16.992;2023-01-25T06:35:19;103411.73;;;0.81;100.00
57050;BME280;42935;50.966;16.992;2023-01-25T06:38:31;103387.48;;;0.76;100.00
57050;BME280;42935;50.966;16.992;2023-01-25T06:41:38;103403.73;;;0.81;100.00
57050;BME280;42935;50.966;16.992;2023-01-25T06:44:45;103412.84;;;1.03;100.00
57050;BME280;42935;50.966;16.992;2023-01-25T06:47:52;103407.58;;;1.07;100.00
57050;BME280;42935;50.966;16.992;2023-01-25T06:51:06;103406.25;;;1.23;100.00
57050;BME280;42935;50.966;16.992;2023-01-25T06:54:09;103398.40;;;1.15;100.00
57050;BME280;42935;50.966;16.992;2023-01-25T06:57:17;103401.12;;;0.99;100.00
57050;BME280;42935;50.966;16.992;2023-01-25T07:00:23;103402.27;;;1.00;100.00
57050;BME280;42935;50.966;16.992;2023-01-25T07:03:33;103394.10;;;1.08;100.00
57050;BME280;42935;50.966;16.992;2023-01-25T07:06:40;103388.11;;;0.92;100.00
57050;BME280;42935;50.966;16.992;2023-01-25T07:09:50;103389.80;;;1.13;100.00
57050;BME280;42935;50.966;16.992;2023-01-25T07:13:00;103386.42;;;1.02;100.00
57050;BME280;42935;50.966;16.992;2023-01-25T07:16:15;103384.83;;;0.52;100.00
57050;BME280;42935;50.966;16.992;2023-01-25T07:19:22;103386.51;;;0.36;100.00
57050;BME280;42935;50.966;16.992;2023-01-25T07:22:59;103384.61;;;0.54;100.00
57050;BME280;42935;50.966;16.992;2023-01-25T07:26:36;103380.75;;;0.75;100.00
57050;BME280;42935;50.966;16.992;2023-01-25T07:29:42;103382.99;;;0.92;100.00
57050;BME280;42935;50.966;16.992;2023-01-25T07:32:58;103387.26;;;0.85;100.00
57050;BME280;42935;50.966;16.992;2023-01-25T07:36:07;103380.62;;;1.02;100.00
57050;BME280;42935;50.966;16.992;2023-01-25T07:39:15;103378.26;;;1.26;100.00
57050;BME280;42935;50.966;16.992;2023-01-25T07:42:25;103373.48;;;1.40;100.00
57050;BME280;42935;50.966;16.992;2023-01-25T07:45:32;103365.88;;;1.13;100.00
57050;BME280;42935;50.966;16.992;2023-01-25T07:48:51;103370.73;;;1.15;100.00
57050;BME280;42935;50.966;16.992;2023-01-25T07:52:04;103364.47;;;1.25;100.00
57050;BME280;42935;50.966;16.992;2023-01-25T07:55:07;103357.47;;;1.35;100.00
57050;BME280;42935;50.966;16.992;2023-01-25T07:58:17;103363.89;;;1.33;100.00
57050;BME280;42935;50.966;16.992;2023-01-25T08:01:36;103354.27;;;1.10;100.00
57050;BME280;42935;50.966;16.992;2023-01-25T08:04:50;103351.83;;;1.33;100.00
57050;BME280;42935;50.966;16.992;2023-01-25T08:08:06;103343.23;;;1.45;100.00
57050;BME280;42935;50.966;16.992;2023-01-25T08:11:20;103341.53;;;1.50;100.00
57050;BME280;42935;50.966;16.992;2023-01-25T08:14:31;103335.24;;;1.52;100.00
57050;BME280;42935;50.966;16.992;2023-01-25T08:17:38;103334.66;;;1.37;100.00
57050;BME280;42935;50.966;16.992;2023-01-25T08:20:49;103342.23;;;1.56;100.00
57050;BME280;42935;50.966;16.992;2023-01-25T08:24:02;103343.49;;;1.23;100.00
57050;BME280;42935;50.966;16.992;2023-01-25T08:27:13;103327.83;;;1.18;100.00
57050;BME280;42935;50.966;16.992;2023-01-25T08:30:20;103334.23;;;1.29;100.00
57050;BME280;42935;50.966;16.992;2023-01-25T08:33:35;103336.48;;;1.33;100.00
57050;BME280;42935;50.966;16.992;2023-01-25T08:36:42;103334.64;;;1.47;100.00
57050;BME280;42935;50.966;16.992;2023-01-25T08:39:55;103277.95;;;1.32;100.00
57050;BME280;42935;50.966;16.992;2023-01-25T08:43:01;103326.16;;;1.71;100.00
57050;BME280;42935;50.966;16.992;2023-01-25T08:46:16;103324.76;;;1.72;100.00
57050;BME280;42935;50.966;16.992;2023-01-25T08:49:26;103328.98;;;1.73;100.00
57050;BME280;42935;50.966;16.992;2023-01-25T08:52:36;103326.49;;;1.38;100.00
57050;BME280;42935;50.966;16.992;2023-01-25T08:55:55;103330.64;;;1.19;100.00
57050;BME280;42935;50.966;16.992;2023-01-25T08:59:37;103318.90;;;1.48;100.00
57050;BME280;42935;50.966;16.992;2023-01-25T09:02:52;103308.35;;;1.48;100.00
57050;BME280;42935;50.966;16.992;2023-01-25T09:05:59;103302.61;;;1.36;100.00
57050;BME280;42935;50.966;16.992;2023-01-25T09:09:06;103296.25;;;1.33;100.00
57050;BME280;42935;50.966;16.992;2023-01-25T09:12:11;103298.18;;;1.49;100.00
57050;BME280;42935;50.966;16.992;2023-01-25T09:15:23;103283.52;;;1.60;100.00
57050;BME280;42935;50.966;16.992;2023-01-25T09:18:36;103284.53;;;1.49;100.00
57050;BME280;42935;50.966;16.992;2023-01-25T09:21:45;103287.91;;;1.46;100.00
57050;BME280;42935;50.966;16.992;2023-01-25T09:24:57;103290.89;;;1.48;100.00
57050;BME280;42935;50.966;16.992;2023-01-25T09:28:07;103290.66;;;1.34;100.00
57050;BME280;42935;50.966;16.992;2023-01-25T09:31:21;103285.29;;;1.52;100.00
57050;BME280;42935;50.966;16.992;2023-01-25T09:34:29;103280.95;;;1.57;100.00
57050;BME280;42935;50.966;16.992;2023-01-25T09:38:15;103283.44;;;1.76;100.00
57050;BME280;42935;50.966;16.992;2023-01-25T09:48:18;103254.42;;;1.91;100.00
57050;BME280;42935;50.966;16.992;2023-01-25T09:51:33;103258.22;;;2.11;100.00
57050;BME280;42935;50.966;16.992;2023-01-25T09:54:46;103249.26;;;2.08;100.00
57050;BME280;42935;50.966;16.992;2023-01-25T09:57:59;103247.25;;;1.97;100.00
57050;BME280;42935;50.966;16.992;2023-01-25T10:01:15;103236.15;;;1.75;100.00
57050;BME280;42935;50.966;16.992;2023-01-25T10:04:34;103234.39;;;2.04;100.00
57050;BME280;42935;50.966;16.992;2023-01-25T10:11:32;103225.41;;;1.88;100.00
57050;BME280;42935;50.966;16.992;2023-01-25T10:15:39;103215.39;;;1.84;100.00
57050;BME280;42935;50.966;16.992;2023-01-25T10:18:55;103210.09;;;1.83;100.00
57050;BME280;42935;50.966;16.992;2023-01-25T10:22:16;103211.55;;;2.15;100.00
57050;BME280;42935;50.966;16.992;2023-01-25T10:28:47;103215.45;;;2.15;100.00
57050;BME280;42935;50.966;16.992;2023-01-25T10:32:29;103211.89;;;2.04;100.00
57050;BME280;42935;50.966;16.992;2023-01-25T10:35:47;103205.29;;;1.86;100.00
57050;BME280;42935;50.966;16.992;2023-01-25T10:38:58;103176.67;;;1.63;100.00
57050;BME280;42935;50.966;16.992;2023-01-25T10:42:19;103194.77;;;1.88;100.00
57050;BME280;42935;50.966;16.992;2023-01-25T10:45:30;103163.49;;;2.03;100.00
57050;BME280;42935;50.966;16.992;2023-01-25T10:48:44;103194.16;;;1.96;100.00
57050;BME280;42935;50.966;16.992;2023-01-25T10:55:21;103198.31;;;2.12;100.00
57050;BME280;42935;50.966;16.992;2023-01-25T10:58:35;103181.38;;;2.12;100.00
57050;BME280;42935;50.966;16.992;2023-01-25T11:01:45;103180.92;;;2.25;100.00
57050;BME280;42935;50.966;16.992;2023-01-25T11:04:54;103157.52;;;2.05;100.00
57050;BME280;42935;50.966;16.992;2023-01-25T11:11:33;103175.78;;;2.08;100.00
57050;BME280;42935;50.966;16.992;2023-01-25T11:14:49;103167.81;;;2.23;100.00
57050;BME280;42935;50.966;16.992;2023-01-25T11:18:04;103149.04;;;2.01;100.00
57050;BME280;42935;50.966;16.992;2023-01-25T11:21:14;103155.19;;;2.06;100.00
57050;BME280;42935;50.966;16.992;2023-01-25T11:24:30;103148.40;;;2.22;100.00
57050;BME280;42935;50.966;16.992;2023-01-25T11:27:38;103142.12;;;2.34;100.00
57050;BME280;42935;50.966;16.992;2023-01-25T11:30:50;103136.94;;;2.19;100.00
57050;BME280;42935;50.966;16.992;2023-01-25T11:33:58;103120.07;;;2.24;100.00
57050;BME280;42935;50.966;16.992;2023-01-25T11:40:35;103120.94;;;2.20;100.00
57050;BME280;42935;50.966;16.992;2023-01-25T11:47:24;103073.70;;;2.30;100.00
57050;BME280;42935;50.966;16.992;2023-01-25T11:50:44;103079.73;;;2.25;100.00
57050;BME280;42935;50.966;16.992;2023-01-25T12:00:47;103072.36;;;2.14;100.00
57050;BME280;42935;50.966;16.992;2023-01-25T12:07:27;103067.84;;;2.03;100.00
57050;BME280;42935;50.966;16.992;2023-01-25T12:14:04;103053.14;;;2.10;100.00
57050;BME280;42935;50.966;16.992;2023-01-25T12:17:23;103036.31;;;2.12;100.00
57050;BME280;42935;50.966;16.992;2023-01-25T12:24:03;103029.20;;;1.98;100.00
57050;BME280;42935;50.966;16.992;2023-01-25T12:34:04;103015.61;;;2.14;100.00
57050;BME280;42935;50.966;16.992;2023-01-25T12:40:41;103010.67;;;2.09;100.00
57050;BME280;42935;50.966;16.992;2023-01-25T12:50:40;102997.70;;;2.11;100.00
57050;BME280;42935;50.966;16.992;2023-01-25T12:53:54;102996.27;;;2.23;100.00
57050;BME280;42935;50.966;16.992;2023-01-25T12:57:10;102995.97;;;2.03;100.00
57050;BME280;42935;50.966;16.992;2023-01-25T13:10:25;102975.57;;;1.89;100.00
57050;BME280;42935;50.966;16.992;2023-01-25T13:13:38;102958.24;;;1.80;100.00
57050;BME280;42935;50.966;16.992;2023-01-25T13:20:46;102948.87;;;1.94;100.00
57050;BME280;42935;50.966;16.992;2023-01-25T13:27:24;102957.27;;;1.92;100.00
57050;BME280;42935;50.966;16.992;2023-01-25T13:30:35;102959.92;;;1.59;100.00
57050;BME280;42935;50.966;16.992;2023-01-25T13:33:49;102953.80;;;1.72;100.00
57050;BME280;42935;50.966;16.992;2023-01-25T13:36:55;102952.58;;;1.90;100.00
57050;BME280;42935;50.966;16.992;2023-01-25T13:43:25;102944.46;;;2.05;100.00
57050;BME280;42935;50.966;16.992;2023-01-25T13:46:35;102946.79;;;2.08;100.00
57050;BME280;42935;50.966;16.992;2023-01-25T13:49:53;102948.09;;;1.98;100.00
57050;BME280;42935;50.966;16.992;2023-01-25T13:53:19;102941.50;;;1.96;100.00
57050;BME280;42935;50.966;16.992;2023-01-25T13:56:32;102948.34;;;1.87;100.00
57050;BME280;42935;50.966;16.992;2023-01-25T13:59:41;102931.04;;;1.90;100.00
57050;BME280;42935;50.966;16.992;2023-01-25T14:02:54;102941.93;;;1.87;100.00
57050;BME280;42935;50.966;16.992;2023-01-25T14:06:04;102940.21;;;2.01;100.00
57050;BME280;42935;50.966;16.992;2023-01-25T14:09:19;102939.63;;;2.10;100.00
57050;BME280;42935;50.966;16.992;2023-01-25T14:12:38;102934.44;;;2.15;100.00
57050;BME280;42935;50.966;16.992;2023-01-25T14:15:58;102922.78;;;2.12;100.00
57050;BME280;42935;50.966;16.992;2023-01-25T14:22:31;102917.67;;;1.92;100.00
57050;BME280;42935;50.966;16.992;2023-01-25T14:25:40;102916.09;;;1.97;100.00
57050;BME280;42935;50.966;16.992;2023-01-25T14:28:56;102916.64;;;1.75;100.00
57050;BME280;42935;50.966;16.992;2023-01-25T14:32:03;102907.81;;;1.73;100.00
57050;BME280;42935;50.966;16.992;2023-01-25T14:38:39;102902.69;;;1.96;100.00
57050;BME280;42935;50.966;16.992;2023-01-25T14:41:55;102886.28;;;1.63;100.00
57050;BME280;42935;50.966;16.992;2023-01-25T14:45:07;102883.36;;;1.59;100.00
57050;BME280;42935;50.966;16.992;2023-01-25T14:55:07;102873.87;;;1.38;100.00
57050;BME280;42935;50.966;16.992;2023-01-25T14:58:21;102867.04;;;1.27;100.00
57050;BME280;42935;50.966;16.992;2023-01-25T15:01:35;102865.34;;;1.26;100.00
57050;BME280;42935;50.966;16.992;2023-01-25T15:11:33;102846.25;;;1.16;100.00
57050;BME280;42935;50.966;16.992;2023-01-25T15:14:48;102843.99;;;1.23;100.00
57050;BME280;42935;50.966;16.992;2023-01-25T15:17:58;102830.32;;;1.22;100.00
57050;BME280;42935;50.966;16.992;2023-01-25T15:21:19;102830.04;;;1.15;100.00
57050;BME280;42935;50.966;16.992;2023-01-25T15:24:32;102837.05;;;1.17;100.00
57050;BME280;42935;50.966;16.992;2023-01-25T15:27:42;102834.59;;;1.21;100.00
57050;BME280;42935;50.966;16.992;2023-01-25T15:30:50;102820.35;;;1.31;100.00
57050;BME280;42935;50.966;16.992;2023-01-25T15:34:16;102828.73;;;1.50;100.00
57050;BME280;42935;50.966;16.992;2023-01-25T15:37:23;102829.41;;;1.53;100.00
57050;BME280;42935;50.966;16.992;2023-01-25T15:40:44;102822.87;;;1.52;100.00
57050;BME280;42935;50.966;16.992;2023-01-25T15:43:54;102819.47;;;1.33;100.00
57050;BME280;42935;50.966;16.992;2023-01-25T15:47:08;102818.68;;;1.37;100.00
57050;BME280;42935;50.966;16.992;2023-01-25T15:50:19;102808.88;;;1.50;100.00
57050;BME280;42935;50.966;16.992;2023-01-25T15:53:32;102801.86;;;1.55;100.00
57050;BME280;42935;50.966;16.992;2023-01-25T15:56:42;102794.88;;;1.30;100.00
57050;BME280;42935;50.966;16.992;2023-01-25T16:00:02;102800.93;;;1.12;100.00
57050;BME280;42935;50.966;16.992;2023-01-25T16:03:43;102793.99;;;1.32;100.00
57050;BME280;42935;50.966;16.992;2023-01-25T16:06:58;102794.74;;;1.28;100.00
57050;BME280;42935;50.966;16.992;2023-01-25T16:10:20;102792.40;;;1.26;100.00
57050;BME280;42935;50.966;16.992;2023-01-25T16:14:00;102787.15;;;1.25;100.00
57050;BME280;42935;50.966;16.992;2023-01-25T16:17:05;102779.70;;;1.33;100.00
57050;BME280;42935;50.966;16.992;2023-01-25T16:20:18;102770.52;;;1.35;100.00
57050;BME280;42935;50.966;16.992;2023-01-25T16:23:28;102720.88;;;1.07;100.00
57050;BME280;42935;50.966;16.992;2023-01-25T16:26:48;102771.27;;;1.26;100.00
57050;BME280;42935;50.966;16.992;2023-01-25T16:30:03;102762.48;;;1.46;100.00
57050;BME280;42935;50.966;16.992;2023-01-25T16:33:19;102752.98;;;1.47;100.00
57050;BME280;42935;50.966;16.992;2023-01-25T16:36:36;102761.68;;;1.37;100.00
57050;BME280;42935;50.966;16.992;2023-01-25T16:39:53;102750.04;;;1.41;100.00
57050;BME280;42935;50.966;16.992;2023-01-25T16:43:13;102758.38;;;1.58;100.00
57050;BME280;42935;50.966;16.992;2023-01-25T16:46:27;102750.34;;;1.38;100.00
57050;BME280;42935;50.966;16.992;2023-01-25T16:49:37;102733.16;;;1.27;100.00
57050;BME280;42935;50.966;16.992;2023-01-25T16:52:51;102742.45;;;1.42;100.00
57050;BME280;42935;50.966;16.992;2023-01-25T16:56:13;102742.65;;;1.42;100.00
57050;BME280;42935;50.966;16.992;2023-01-25T16:59:24;102738.13;;;1.44;100.00
57050;BME280;42935;50.966;16.992;2023-01-25T17:02:38;102737.63;;;1.27;100.00
57050;BME280;42935;50.966;16.992;2023-01-25T17:05:51;102724.23;;;1.13;100.00
57050;BME280;42935;50.966;16.992;2023-01-25T17:09:06;102722.42;;;1.09;100.00
57050;BME280;42935;50.966;16.992;2023-01-25T17:12:17;102722.01;;;1.19;100.00
57050;BME280;42935;50.966;16.992;2023-01-25T17:15:27;102719.52;;;1.13;100.00
57050;BME280;42935;50.966;16.992;2023-01-25T17:18:45;102715.53;;;1.27;100.00
57050;BME280;42935;50.966;16.992;2023-01-25T17:21:57;102710.95;;;1.19;100.00
57050;BME280;42935;50.966;16.992;2023-01-25T17:25:12;102683.74;;;1.05;100.00
57050;BME280;42935;50.966;16.992;2023-01-25T17:28:29;102690.45;;;1.31;100.00
57050;BME280;42935;50.966;16.992;2023-01-25T17:31:39;102688.13;;;1.28;100.00
57050;BME280;42935;50.966;16.992;2023-01-25T17:34:55;102695.66;;;1.34;100.00
57050;BME280;42935;50.966;16.992;2023-01-25T17:38:06;102692.03;;;1.38;100.00
57050;BME280;42935;50.966;16.992;2023-01-25T17:41:23;102690.95;;;1.34;100.00
57050;BME280;42935;50.966;16.992;2023-01-25T17:44:37;102689.32;;;1.26;100.00
57050;BME280;42935;50.966;16.992;2023-01-25T17:47:43;102685.59;;;1.12;100.00
57050;BME280;42935;50.966;16.992;2023-01-25T17:51:00;102688.48;;;1.23;100.00
57050;BME280;42935;50.966;16.992;2023-01-25T17:54:11;102684.05;;;1.32;100.00
57050;BME280;42935;50.966;16.992;2023-01-25T17:57:18;102684.02;;;1.32;100.00
57050;BME280;42935;50.966;16.992;2023-01-25T18:00:36;102671.52;;;1.19;100.00
57050;BME280;42935;50.966;16.992;2023-01-25T18:03:41;102671.44;;;1.17;100.00
57050;BME280;42935;50.966;16.992;2023-01-25T18:06:49;102664.22;;;1.15;100.00
57050;BME280;42935;50.966;16.992;2023-01-25T18:09:57;102663.04;;;1.12;100.00
57050;BME280;42935;50.966;16.992;2023-01-25T18:13:15;102659.25;;;1.08;100.00
57050;BME280;42935;50.966;16.992;2023-01-25T18:16:30;102644.35;;;1.13;100.00
57050;BME280;42935;50.966;16.992;2023-01-25T18:19:41;102652.41;;;1.24;100.00
57050;BME280;42935;50.966;16.992;2023-01-25T18:22:51;102651.47;;;1.23;100.00
57050;BME280;42935;50.966;16.992;2023-01-25T18:26:04;102626.50;;;1.11;100.00